Bovina, Colorado
Current Conditions -  °F | °C
As of 4:55 PM on Thursday 18 Dec 2014 (Local Time) from KLIC Reporting Station
Clear Clear  
Wind Chill: 22°   Ceiling: Unl
Heat Index: 30°   Visibility: 10mi
Dew Point: 21°   Wind: 8mph
Humidity: 69%   Direction: 160°SSE
Pressure: 30.04"   Gusts: NA
Location:  39.4374°N, 103.393°W
Report Text: KLIC 182355Z AUTO 16007KT 10SM CLR M01/M06 A3004 RMK AO2 SLP201 T10111061 10067 21011 53012
Loading
Personal Weather Stations






























Interactive Weather Map New forecast layout! Learn more

10-Day Weather Forecast

Advertisements
Track Severe Weather on mobile